This is the latest recevied weather packets stored in our database for station/object KK4KTV-13. If no packets are shown the sender has not sent any weather packets the latest 10 day(s).
| Time | Temp. | Humidity | Pressure | Rain* | Wind** | Luminosity | Snow |
|---|---|---|---|---|---|---|---|
| 1777695130 | 7.22° C | 82% | 1016.1 hPa | 0 mm | - | 0 W/m² | - |
| 1777694827 | 7.22° C | 82% | 1016.2 hPa | 0 mm | - | 0 W/m² | - |
| 1777694524 | 7.22° C | 82% | 1016.3 hPa | 0 mm | - | 0 W/m² | - |
| 1777694220 | 7.22° C | 82% | 1016.3 hPa | 0 mm | - | 0 W/m² | - |
| 1777693917 | 6.67° C | 82% | 1016.2 hPa | 0 mm | - | 0 W/m² | - |
| 1777693615 | 6.67° C | 84% | 1016.1 hPa | 0 mm | - | 0 W/m² | - |
| 1777693313 | 6.67° C | 83% | 1016.2 hPa | 0 mm | - | 0 W/m² | - |
| 1777693011 | 7.22° C | 82% | 1016.2 hPa | 0 mm | - | 0 W/m² | - |
| 1777692708 | 7.22° C | 81% | 1016.2 hPa | 0 mm | - | 0 W/m² | - |
| 1777692404 | 7.78° C | 80% | 1016.4 hPa | 0 mm | - | 0 W/m² | - |
| 1777692100 | 7.78° C | 80% | 1016.1 hPa | 0 mm | - | 0 W/m² | - |
| 1777691799 | 7.22° C | 80% | 1016.3 hPa | 0 mm | - | 0 W/m² | - |
| 1777691496 | 6.67° C | 83% | 1016.1 hPa | 0 mm | - | 0 W/m² | - |
| 1777691195 | 6.67° C | 82% | 1016 hPa | 0 mm | - | 0 W/m² | - |
| 1777690893 | 7.22° C | 79% | 1016.2 hPa | 0 mm | - | 0 W/m² | - |
| 1777690590 | 7.22° C | 78% | 1016.2 hPa | 0 mm | - | 0 W/m² | - |
| 1777690287 | 7.78° C | 78% | 1016.2 hPa | 0 mm | - | 0 W/m² | - |
| 1777689985 | 8.33° C | 76% | 1016.1 hPa | 0 mm | - | 0 W/m² | - |
| 1777689683 | 8.33° C | 77% | 1015.9 hPa | 0 mm | - | 0 W/m² | - |
| 1777689381 | 8.33° C | 75% | 1015.9 hPa | 0 mm | - | 0 W/m² | - |
| 1777689078 | 8.89° C | 73% | 1015.8 hPa | 0 mm | - | 0 W/m² | - |
| 1777688774 | 9.44° C | 71% | 1015.8 hPa | 0 mm | - | 0 W/m² | - |
| 1777688472 | 10° C | 69% | 1015.8 hPa | 0 mm | - | 0 W/m² | - |
| 1777688169 | 10.56° C | 66% | 1015.7 hPa | 0 mm | - | 0 W/m² | - |
| 1777687866 | 10.56° C | 66% | 1015.8 hPa | 0 mm | - | 0 W/m² | - |
* Rain latest hour (hover to see other rain measurements)
** Current wind speed in m/s (hover to see current wind gust speed)